Terminal Aerodrome Forecast
Issued by NWS Amarillo, TX

Home | Current Version | Previous Version | Text Only | Print | Product List | Glossary On
Versions: 1 2 3 4 5 6 7 8 9 10 11 12 13 14 15
000
FTUS44 KAMA 292300
TAFAMA
TAF
KAMA 292326Z 3000/3024 03015G20KT P6SM SCT250
     FM300100 06008KT P6SM SCT200
     FM301500 19017KT P6SM SCT150=

USA.gov is the U.S. government's official web portal to all federal, state and local government web resources and services.